Terminal Aerodrome Forecast
Issued by NWS

Current Version | Previous Version | Text Only | Print | Product List | Glossary On
Versions: 1 2 3 4 5 6 7 8 9 10 11 12
000
FTPA31 PHFO 301725
TAFHKO
TAF
PHKO 301725Z 3018/3118 11004KT P6SM SKC
     FM302000 22010KT P6SM FEW035 SCT070
     FM310600 14004KT P6SM FEW070=

USA.gov is the U.S. government's official web portal to all federal, state and local government web resources and services.